Time;durP1;ratioP1;P1;durP2;ratioP2;P2;SDS_P1;SDS_P2;PMS_P1;PMS_P2;Temp;Humidity;BMP_temperature;BMP_pressure;BME280_temperature;BME280_humidity;BME280_pressure;Samples;Min_cycle;Max_cycle;Signal;HPM_P1;HPM_P2
2022/06/07 00:02:25;;;;;;;7.93;4.10;;;;;;;18.99;100.00;100406.81;4956533;28;20026;-74
2022/06/07 00:04:53;;;;;;;10.43;3.90;;;;;;;18.84;100.00;100406.75;4972522;28;20035;-73
2022/06/07 00:07:19;;;;;;;6.72;4.05;;;;;;;18.69;100.00;100412.81;4972551;28;20138;-74
2022/06/07 00:09:45;;;;;;;10.50;4.30;;;;;;;18.19;100.00;100376.06;4972611;28;20038;-74
2022/06/07 00:12:11;;;;;;;7.03;4.47;;;;;;;18.34;100.00;100397.91;4979292;28;20042;-74
2022/06/07 00:14:36;;;;;;;10.18;4.53;;;;;;;18.21;100.00;100392.63;4993813;28;20046;-74
2022/06/07 00:17:05;;;;;;;12.48;4.95;;;;;;;18.26;100.00;100405.72;4994124;28;20026;-73
2022/06/07 00:19:34;;;;;;;6.30;5.05;;;;;;;18.20;100.00;100395.22;4994466;28;20062;-74
2022/06/07 00:22:00;;;;;;;8.52;4.80;;;;;;;18.34;100.00;100398.75;4994041;28;20030;-74
2022/06/07 00:24:26;;;;;;;7.43;4.60;;;;;;;18.21;100.00;100368.25;4991783;28;20054;-73
2022/06/07 00:26:52;;;;;;;8.38;4.88;;;;;;;18.20;100.00;100396.09;4993821;28;20084;-73
2022/06/07 00:29:18;;;;;;;7.72;4.32;;;;;;;18.26;100.00;100390.03;4994054;28;20034;-73
2022/06/07 00:31:44;;;;;;;6.18;5.28;;;;;;;18.31;100.00;100397.91;4994164;28;20034;-73
2022/06/07 00:34:10;;;;;;;5.85;4.40;;;;;;;18.39;100.00;100391.84;4993892;28;20026;-73
2022/06/07 00:36:36;;;;;;;7.30;4.85;;;;;;;18.52;100.00;100395.34;4994002;28;20056;-73
2022/06/07 00:39:01;;;;;;;7.20;4.82;;;;;;;18.51;100.00;100404.06;4993472;28;20110;-73
2022/06/07 00:41:27;;;;;;;9.32;4.72;;;;;;;18.65;100.00;100403.22;4993835;28;20468;-73
2022/06/07 00:44:30;;;;;;;7.30;4.65;;;;;;;18.74;100.00;100408.47;4993967;28;20096;-73
2022/06/07 00:46:59;;;;;;;7.40;4.40;;;;;;;18.87;100.00;100409.38;4993730;28;20113;-73
2022/06/07 00:49:26;;;;;;;8.88;4.60;;;;;;;18.74;99.44;100379.69;4983987;28;20405;-73
2022/06/07 00:51:52;;;;;;;9.88;4.70;;;;;;;18.84;99.67;100402.41;4993170;28;20289;-73
2022/06/07 00:54:26;;;;;;;7.88;5.10;;;;;;;18.81;100.00;100393.69;4993157;28;20567;-74
2022/06/07 00:56:52;;;;;;;8.65;5.15;;;;;;;18.67;99.94;100391.91;4993297;28;20412;-75
2022/06/07 00:59:17;;;;;;;8.60;5.15;;;;;;;18.59;100.00;100398.84;4992940;28;20034;-74
2022/06/07 01:01:43;;;;;;;6.50;4.55;;;;;;;18.64;100.00;100396.25;4993498;28;20042;-74
2022/06/07 01:04:09;;;;;;;7.57;4.82;;;;;;;18.71;100.00;100400.63;4993079;28;20205;-74
2022/06/07 01:12:03;;;;;;;8.88;4.68;;;;;;;18.87;100.00;100399.78;4993272;28;20520;-74
2022/06/07 01:14:28;;;;;;;10.20;4.22;;;;;;;18.81;100.00;100388.44;4991536;28;20026;-74
2022/06/07 01:16:54;;;;;;;8.63;4.75;;;;;;;18.69;100.00;100368.38;4991957;28;20062;-73
2022/06/07 01:19:19;;;;;;;10.93;4.82;;;;;;;18.89;100.00;100391.94;4992377;28;20026;-75
2022/06/07 01:21:46;;;;;;;8.38;5.00;;;;;;;18.85;100.00;100385.81;4986348;28;20033;-72
2022/06/07 01:24:14;;;;;;;9.52;5.28;;;;;;;18.66;100.00;100365.75;4988041;28;20038;-74
2022/06/07 01:26:40;;;;;;;10.52;5.22;;;;;;;18.66;100.00;100394.53;4992156;28;20061;-74
2022/06/07 01:29:06;;;;;;;8.48;4.95;;;;;;;18.55;100.00;100384.03;4992432;28;20416;-74
2022/06/07 01:31:31;;;;;;;8.68;4.90;;;;;;;18.52;100.00;100384.91;4991048;28;20411;-74
2022/06/07 01:33:57;;;;;;;7.95;5.00;;;;;;;18.29;100.00;100348.22;4988611;28;20559;-74
2022/06/07 01:36:23;;;;;;;7.75;4.80;;;;;;;18.38;100.00;100389.19;4992106;28;20033;-74
2022/06/07 01:44:17;;;;;;;9.05;4.72;;;;;;;17.29;100.00;100403.31;4991942;28;20122;-73
2022/06/07 01:46:42;;;;;;;10.90;5.80;;;;;;;17.04;100.00;100391.81;4992203;28;20014;-73
2022/06/07 01:49:08;;;;;;;7.70;5.25;;;;;;;17.04;100.00;100392.69;4980214;28;20113;-73
2022/06/07 01:51:34;;;;;;;9.55;5.55;;;;;;;17.11;100.00;100412.75;4992169;28;20038;-72
2022/06/07 01:53:59;;;;;;;10.15;5.30;;;;;;;16.94;100.00;100381.28;4991915;28;20835;-73
2022/06/07 01:56:25;;;;;;;7.25;5.00;;;;;;;17.06;100.00;100403.13;4991672;28;20026;-74
2022/06/07 01:58:50;;;;;;;10.82;4.93;;;;;;;17.08;100.00;100404.00;4991292;28;20089;-72
2022/06/07 02:01:15;;;;;;;10.98;5.20;;;;;;;17.06;100.00;100400.50;4991710;28;20041;-73
2022/06/07 02:03:41;;;;;;;9.75;5.35;;;;;;;17.02;100.00;100391.78;4991734;28;20026;-72
2022/06/07 02:06:11;;;;;;;10.82;5.65;;;;;;;17.04;100.00;100384.00;4991526;28;20032;-73
2022/06/07 02:08:37;;;;;;;10.85;5.20;;;;;;;16.93;100.00;100384.75;4991285;28;20022;-73
2022/06/07 02:11:25;;;;;;;8.45;5.32;;;;;;;16.94;100.00;100386.50;4969311;28;20076;-73
2022/06/07 02:13:52;;;;;;;9.07;5.05;;;;;;;17.04;100.00;100399.63;4969684;28;20038;-73
2022/06/07 02:16:18;;;;;;;9.75;5.38;;;;;;;17.09;100.00;100401.41;4969371;28;20081;-73
2022/06/07 02:18:46;;;;;;;7.82;4.60;;;;;;;16.96;100.00;100399.56;4969641;28;20126;-74
2022/06/07 02:21:13;;;;;;;7.88;5.00;;;;;;;16.82;100.00;100399.38;4969481;28;20543;-74
2022/06/07 02:23:39;;;;;;;7.70;4.70;;;;;;;16.87;100.00;100404.66;4968967;28;20030;-73
2022/06/07 02:26:11;;;;;;;10.88;4.82;;;;;;;16.96;100.00;100416.09;4969353;28;20043;-74
2022/06/07 02:28:40;;;;;;;6.57;5.10;;;;;;;16.64;100.00;100376.63;4969251;28;20034;-74
2022/06/07 02:31:07;;;;;;;6.90;4.75;;;;;;;16.74;100.00;100406.25;4969351;28;20066;-72
2022/06/07 02:33:36;;;;;;;6.68;4.30;;;;;;;16.58;100.00;100381.75;4952703;28;20105;-72
2022/06/07 02:36:04;;;;;;;6.47;4.63;;;;;;;16.65;100.00;100392.25;4969455;28;20426;-72
2022/06/07 02:38:30;;;;;;;8.18;4.35;;;;;;;16.49;100.00;100400.78;4969440;28;20037;-72
2022/06/07 02:40:55;;;;;;;5.50;4.22;;;;;;;16.60;100.00;100404.38;4969853;28;20038;-71
2022/06/07 02:43:21;;;;;;;10.88;4.85;;;;;;;16.47;100.00;100394.66;4988978;28;20042;-72
2022/06/07 02:45:46;;;;;;;7.68;4.10;;;;;;;16.46;100.00;100411.16;4989863;28;20117;-76
2022/06/07 02:48:12;;;;;;;7.80;4.18;;;;;;;16.33;100.00;100400.56;4991432;28;20477;-71
2022/06/07 02:50:37;;;;;;;6.40;4.70;;;;;;;16.34;100.00;100407.53;4990987;28;20053;-72
2022/06/07 02:53:04;;;;;;;10.45;4.80;;;;;;;16.22;100.00;100389.16;4991027;28;20031;-72
2022/06/07 02:55:29;;;;;;;9.88;5.30;;;;;;;16.18;100.00;100388.25;4989936;28;20034;-69
2022/06/07 02:57:55;;;;;;;11.60;4.85;;;;;;;16.26;100.00;100411.81;4991062;28;20025;-71
2022/06/07 03:00:21;;;;;;;7.72;4.53;;;;;;;16.34;100.00;100423.16;4990998;28;20022;-71
2022/06/07 03:02:48;;;;;;;8.82;4.45;;;;;;;16.57;100.00;100425.19;4991048;28;20416;-70
2022/06/07 03:05:15;;;;;;;9.50;4.15;;;;;;;16.87;100.00;100430.72;4990760;28;20027;-70
2022/06/07 03:07:41;;;;;;;7.28;4.90;;;;;;;16.94;100.00;100402.13;4991197;28;20437;-71
2022/06/07 03:10:09;;;;;;;12.38;4.60;;;;;;;17.14;100.00;100424.94;4990958;28;20029;-69
2022/06/07 03:12:35;;;;;;;8.50;4.63;;;;;;;17.23;100.00;100427.63;4990560;28;20073;-69
2022/06/07 03:15:01;;;;;;;10.93;4.72;;;;;;;16.96;100.00;100426.50;4990834;28;20030;-71
2022/06/07 03:17:27;;;;;;;9.88;5.35;;;;;;;16.85;100.00;100428.09;4990603;28;20497;-72
2022/06/07 03:19:52;;;;;;;14.15;4.55;;;;;;;16.83;100.00;100390.69;4990873;28;20031;-71
2022/06/07 03:22:19;;;;;;;11.95;4.55;;;;;;;17.17;100.00;100438.03;4991256;28;20072;-71
2022/06/07 03:24:44;;;;;;;13.43;4.80;;;;;;;17.23;100.00;100430.22;4990877;28;20481;-71
2022/06/07 03:27:12;;;;;;;11.27;4.65;;;;;;;17.36;99.18;100431.22;4972465;28;20053;-71
2022/06/07 03:29:37;;;;;;;9.55;4.65;;;;;;;17.40;98.70;100429.53;4990823;28;20468;-70
2022/06/07 03:32:04;;;;;;;12.55;5.05;;;;;;;17.53;97.70;100420.03;4990666;28;20030;-71
2022/06/07 03:34:29;;;;;;;18.55;4.70;;;;;;;17.58;96.47;100421.84;4989226;28;20492;-71
2022/06/07 03:36:55;;;;;;;17.35;6.07;;;;;;;17.67;96.51;100431.47;4990808;28;20033;-68
2022/06/07 03:39:20;;;;;;;11.57;5.60;;;;;;;17.59;96.99;100427.91;4990774;28;20579;-68
2022/06/07 03:41:46;;;;;;;11.60;4.70;;;;;;;17.60;nan;100430.53;4990602;28;20109;-71
2022/06/07 03:44:12;;;;;;;11.45;4.97;;;;;;;17.57;97.92;100435.75;4990718;28;20035;-69
2022/06/07 03:46:42;;;;;;;8.27;4.90;;;;;;;17.52;98.83;100445.28;4990549;28;20538;-72
2022/06/07 03:49:07;;;;;;;11.73;5.10;;;;;;;17.22;98.86;100417.19;4990440;28;20049;-71
2022/06/07 03:51:33;;;;;;;11.82;5.25;;;;;;;17.37;99.11;100452.97;4990787;28;20026;-72
2022/06/07 03:53:59;;;;;;;11.73;5.68;;;;;;;17.51;98.29;100446.13;4990582;28;20080;-75
2022/06/07 03:56:25;;;;;;;12.23;6.07;;;;;;;17.57;98.61;100435.75;4990682;28;20114;-74
2022/06/07 03:58:51;;;;;;;11.57;5.97;;;;;;;17.53;99.44;100439.16;4990633;28;20290;-70
2022/06/07 04:01:19;;;;;;;18.02;6.05;;;;;;;17.21;100.00;100425.84;4990324;28;20079;-72
2022/06/07 04:03:47;;;;;;;10.85;5.65;;;;;;;16.84;100.00;100430.72;4990419;28;20035;-73
2022/06/07 04:06:23;;;;;;;11.55;5.95;;;;;;;16.43;100.00;100430.22;5005564;28;20393;-73
2022/06/07 04:08:49;;;;;;;9.77;5.50;;;;;;;16.45;100.00;100428.53;4990417;28;20038;-72
2022/06/07 04:11:17;;;;;;;10.50;5.45;;;;;;;16.25;100.00;100430.00;4990278;28;20026;-70
2022/06/07 04:13:43;;;;;;;14.05;5.80;;;;;;;16.29;100.00;100437.88;4990407;28;20057;-75
2022/06/07 04:16:12;;;;;;;11.65;6.68;;;;;;;16.57;100.00;100442.56;4990200;28;20493;-72
2022/06/07 04:18:38;;;;;;;11.32;6.30;;;;;;;16.63;100.00;100437.41;4990311;28;20093;-69
2022/06/07 04:21:05;;;;;;;11.38;5.47;;;;;;;16.70;100.00;100443.56;4990577;28;20038;-72
2022/06/07 04:23:31;;;;;;;9.98;6.05;;;;;;;16.76;100.00;100457.56;4991832;28;20027;-71
2022/06/07 04:25:57;;;;;;;11.68;6.35;;;;;;;16.84;100.00;100448.97;4993569;28;20056;-72
2022/06/07 04:28:22;;;;;;;10.68;6.97;;;;;;;16.78;100.00;100415.84;4993676;28;20460;-73
2022/06/07 04:30:49;;;;;;;10.30;6.70;;;;;;;16.99;100.00;100446.53;4988550;28;20089;-73
2022/06/07 04:33:17;;;;;;;12.75;6.65;;;;;;;17.09;100.00;100450.09;4990844;28;20112;-73
2022/06/07 04:35:44;;;;;;;10.30;6.03;;;;;;;17.18;100.00;100446.72;4993655;28;20026;-70
2022/06/07 04:38:10;;;;;;;11.43;6.25;;;;;;;17.28;98.97;100440.72;4993624;28;20104;-73
2022/06/07 04:40:38;;;;;;;10.40;5.93;;;;;;;17.34;98.00;100432.94;4993532;28;20030;-73
2022/06/07 04:43:04;;;;;;;13.05;6.30;;;;;;;17.61;97.81;100442.72;4993417;28;20034;-73
2022/06/07 04:45:31;;;;;;;9.98;5.63;;;;;;;17.76;96.83;100435.88;4975007;28;20506;-71
2022/06/07 04:47:57;;;;;;;9.65;5.65;;;;;;;17.90;95.60;100417.69;4993229;28;20030;-73
2022/06/07 04:50:23;;;;;;;10.02;5.75;;;;;;;18.06;97.21;100431.75;4993206;28;20054;-72
2022/06/07 04:52:48;;;;;;;11.23;4.85;;;;;;;17.99;96.82;100412.53;4993338;28;20062;-73
2022/06/07 04:55:16;;;;;;;11.88;4.97;;;;;;;18.03;97.18;100413.44;4993123;28;20503;-73
2022/06/07 04:57:41;;;;;;;7.43;4.78;;;;;;;18.14;98.68;100437.00;4979944;28;20042;-73
2022/06/07 05:00:09;;;;;;;7.60;4.28;;;;;;;17.84;99.53;100399.38;4973721;28;20031;-73
2022/06/07 05:02:37;;;;;;;7.97;4.72;;;;;;;18.04;100.00;100428.25;4973799;28;20027;-73
2022/06/07 05:05:04;;;;;;;7.75;3.90;;;;;;;18.12;98.02;100439.63;4973649;28;20509;-73
2022/06/07 05:07:30;;;;;;;9.32;4.00;;;;;;;18.01;98.88;100396.91;4955413;28;20394;-76
2022/06/07 05:09:55;;;;;;;8.15;3.65;;;;;;;18.29;95.65;100439.69;4973526;28;20041;-72
2022/06/07 05:12:21;;;;;;;7.13;3.85;;;;;;;18.46;98.43;100445.00;4973423;28;20027;-73
2022/06/07 05:14:47;;;;;;;6.45;3.75;;;;;;;18.56;96.98;100456.38;4973565;28;20031;-73
2022/06/07 05:17:13;;;;;;;4.78;3.65;;;;;;;18.65;93.44;100460.75;4973349;28;20034;-74
2022/06/07 05:19:39;;;;;;;4.90;3.63;;;;;;;18.89;95.68;100455.59;4973388;28;20161;-72
2022/06/07 05:22:05;;;;;;;5.00;3.33;;;;;;;18.95;93.68;100454.75;4973316;28;20027;-73
2022/06/07 05:24:30;;;;;;;5.57;3.40;;;;;;;19.15;89.42;100462.69;4973082;28;20031;-73
2022/06/07 05:27:01;;;;;;;4.82;2.92;;;;;;;19.08;89.49;100461.78;4996973;28;20034;-73
2022/06/07 05:29:51;;;;;;;4.40;3.30;;;;;;;19.19;88.51;100455.66;4992806;28;20116;-73
2022/06/07 05:32:17;;;;;;;3.97;2.92;;;;;;;19.17;87.35;100439.13;4992329;28;20037;-72
2022/06/07 05:34:43;;;;;;;4.68;3.08;;;;;;;19.08;90.85;100426.91;4992440;28;20026;-72
2022/06/07 05:37:20;;;;;;;3.85;2.83;;;;;;;19.43;88.58;100460.06;4992463;28;20034;-73
2022/06/07 05:39:46;;;;;;;5.35;3.67;;;;;;;19.56;87.11;100460.94;4992622;28;20105;-73
2022/06/07 05:42:13;;;;;;;6.68;3.22;;;;;;;19.58;88.79;100440.88;4992306;28;20241;-73
2022/06/07 05:44:39;;;;;;;5.88;3.22;;;;;;;19.71;83.35;100449.56;4992338;28;20038;-75
2022/06/07 05:47:05;;;;;;;5.53;3.15;;;;;;;19.66;82.96;100452.19;4992113;28;20036;-73
2022/06/07 05:49:30;;;;;;;5.60;2.90;;;;;;;19.62;81.87;100463.56;4992242;28;20396;-73
2022/06/07 05:51:57;;;;;;;5.22;3.08;;;;;;;19.58;83.05;100458.31;4991994;28;20029;-73
2022/06/07 05:54:23;;;;;;;5.30;3.10;;;;;;;19.50;82.31;100453.97;4992076;28;20037;-73
2022/06/07 05:56:49;;;;;;;4.47;3.20;;;;;;;19.52;83.11;100461.81;4992282;28;20022;-70
2022/06/07 05:59:14;;;;;;;3.78;3.00;;;;;;;19.62;83.49;100473.16;4990662;28;20088;-74
2022/06/07 06:01:40;;;;;;;8.90;3.38;;;;;;;19.73;87.09;100471.41;4992217;28;20031;-71
2022/06/07 06:04:07;;;;;;;7.05;2.80;;;;;;;19.76;83.33;100458.28;4991785;28;20031;-70
2022/06/07 06:06:34;;;;;;;5.22;2.83;;;;;;;19.90;83.61;100468.81;4991658;28;20124;-74
2022/06/07 06:11:44;;;;;;;5.25;2.90;;;;;;;20.02;82.11;100470.53;4992010;28;20034;-73
2022/06/07 06:14:10;;;;;;;6.60;2.90;;;;;;;20.16;82.41;100476.63;4992248;28;20026;-72
2022/06/07 06:16:37;;;;;;;5.05;2.75;;;;;;;20.22;80.41;100461.75;4991745;28;20175;-72
2022/06/07 06:19:03;;;;;;;3.58;2.67;;;;;;;20.31;78.98;100472.19;4991058;28;20054;-71
2022/06/07 06:21:33;;;;;;;4.07;2.85;;;;;;;20.38;78.60;100470.44;4989134;28;20030;-73
2022/06/07 06:23:59;;;;;;;3.65;2.83;;;;;;;20.25;78.87;100440.75;4991659;28;20038;-71
2022/06/07 06:26:26;;;;;;;3.47;2.45;;;;;;;20.49;78.01;100471.28;4991833;28;20068;-71
2022/06/07 06:28:52;;;;;;;8.85;3.20;;;;;;;20.62;79.94;100469.47;4991564;28;20042;-72
2022/06/07 06:31:18;;;;;;;4.68;2.50;;;;;;;20.63;78.23;100456.34;4991839;28;20037;-72
2022/06/07 06:33:49;;;;;;;3.72;2.33;;;;;;;20.39;75.44;100415.38;4991194;28;20432;-76
2022/06/07 06:36:20;;;;;;;4.28;2.53;;;;;;;20.69;75.82;100452.81;4991315;28;20448;-72
2022/06/07 06:38:46;;;;;;;5.10;2.70;;;;;;;20.78;77.31;100458.03;4990106;28;20155;-70
2022/06/07 06:41:16;;;;;;;4.97;2.65;;;;;;;20.80;77.54;100453.66;4991424;28;20054;-74
2022/06/07 06:43:42;;;;;;;4.90;2.70;;;;;;;20.66;76.28;100408.22;4991279;28;20034;-72
2022/06/07 06:46:12;;;;;;;3.78;2.45;;;;;;;20.93;77.08;100458.84;4990085;28;20509;-72
2022/06/07 06:48:38;;;;;;;7.07;3.30;;;;;;;20.97;75.11;100457.94;4988867;28;20026;-72
2022/06/07 06:51:06;;;;;;;5.22;2.50;;;;;;;20.99;76.12;100456.19;4991128;28;20604;-72
2022/06/07 06:53:33;;;;;;;4.00;2.22;;;;;;;21.05;74.84;100464.03;4990848;28;20401;-72
2022/06/07 06:55:58;;;;;;;7.00;2.70;;;;;;;21.04;75.58;100464.91;4990910;28;20030;-72
2022/06/07 06:58:25;;;;;;;4.70;2.90;;;;;;;21.16;75.12;100454.31;4990535;28;20409;-72
2022/06/07 07:01:12;;;;;;;3.38;2.42;;;;;;;21.32;75.25;100459.44;4990188;28;20014;-72
2022/06/07 07:03:39;;;;;;;4.88;2.58;;;;;;;21.30;75.65;100456.84;4988790;28;20061;-72
2022/06/07 07:06:07;;;;;;;3.55;2.53;;;;;;;21.39;77.15;100461.13;4990528;28;20022;-73
2022/06/07 07:08:34;;;;;;;5.07;2.70;;;;;;;21.34;76.32;100455.06;4970106;28;20038;-71
2022/06/07 07:11:15;;;;;;;4.25;2.67;;;;;;;21.39;76.03;100457.66;4989567;28;20084;-71
2022/06/07 07:13:41;;;;;;;4.97;2.60;;;;;;;21.45;76.10;100452.34;4988533;28;20026;-71
2022/06/07 07:16:09;;;;;;;3.25;2.20;;;;;;;21.50;73.36;100454.03;4990418;28;20026;-70
2022/06/07 07:18:35;;;;;;;4.22;2.38;;;;;;;21.37;73.02;100414.78;4987116;28;20477;-69
2022/06/07 07:21:06;;;;;;;4.18;2.30;;;;;;;21.35;72.39;100412.16;4990455;28;20039;-71
2022/06/07 07:23:32;;;;;;;4.93;2.20;;;;;;;21.62;73.41;100433.84;4990230;28;20105;-73
2022/06/07 07:26:06;;;;;;;3.45;2.15;;;;;;;21.74;69.82;100430.22;4989606;28;20046;-71
2022/06/07 07:28:33;;;;;;;3.53;2.25;;;;;;;21.55;74.94;100395.38;4990268;28;20101;-71
2022/06/07 07:31:05;;;;;;;3.58;2.35;;;;;;;21.74;73.10;100422.34;4990469;28;20034;-71
2022/06/07 07:33:31;;;;;;;3.42;2.10;;;;;;;21.84;73.83;100415.25;4990474;28;20409;-72
2022/06/07 07:35:59;;;;;;;4.97;2.33;;;;;;;21.89;73.33;100432.69;4989287;28;20045;-71
2022/06/07 07:38:25;;;;;;;4.63;2.45;;;;;;;21.97;71.02;100419.50;4987594;28;20062;-72
2022/06/07 07:40:51;;;;;;;2.72;2.03;;;;;;;21.97;70.05;100411.59;4990273;28;20114;-72
2022/06/07 07:43:17;;;;;;;5.35;2.63;;;;;;;22.18;71.12;100410.50;4990243;28;20034;-72
2022/06/07 07:45:43;;;;;;;5.00;2.40;;;;;;;22.33;72.29;100414.69;4989130;28;20050;-72
2022/06/07 07:48:09;;;;;;;10.27;2.88;;;;;;;22.36;70.67;100406.75;4971666;28;20048;-74
2022/06/07 07:50:37;;;;;;;3.42;2.30;;;;;;;22.37;70.29;100412.88;4990102;28;20047;-73
2022/06/07 07:53:02;;;;;;;4.68;2.58;;;;;;;22.25;71.76;100377.94;4990652;28;20026;-70
2022/06/07 07:55:28;;;;;;;10.38;2.80;;;;;;;22.31;69.18;100384.91;4992921;28;20038;-74
2022/06/07 07:57:53;;;;;;;4.40;2.53;;;;;;;22.54;69.15;100405.69;4992111;28;20026;-71
2022/06/07 08:00:19;;;;;;;6.38;3.13;;;;;;;22.51;69.81;100386.44;4993865;28;20109;-73
2022/06/07 08:02:44;;;;;;;8.98;3.15;;;;;;;22.61;68.88;100399.41;4992288;28;20107;-74
2022/06/07 08:05:10;;;;;;;7.68;2.60;;;;;;;22.49;71.54;100377.69;4993137;28;20026;-72
2022/06/07 08:07:36;;;;;;;3.13;2.47;;;;;;;22.55;70.76;100386.34;4992616;28;20030;-71
2022/06/07 08:10:04;;;;;;;9.05;2.92;;;;;;;22.61;70.70;100398.56;4980986;28;20609;-73
2022/06/07 08:12:31;;;;;;;3.72;2.47;;;;;;;22.61;70.13;100395.94;4975692;28;20050;-72
2022/06/07 08:14:56;;;;;;;6.05;2.63;;;;;;;22.64;68.24;100389.75;4974808;28;20035;-73
2022/06/07 08:17:21;;;;;;;2.72;2.28;;;;;;;22.64;70.54;100392.38;4973615;28;20085;-72
2022/06/07 08:19:47;;;;;;;4.30;2.08;;;;;;;22.66;68.32;100383.56;4973768;28;20031;-72
2022/06/07 08:22:13;;;;;;;6.35;2.55;;;;;;;22.71;72.31;100381.75;4972663;28;20433;-73
2022/06/07 08:24:38;;;;;;;6.20;2.60;;;;;;;22.89;71.79;100375.34;4973151;28;20046;-72
2022/06/07 08:27:04;;;;;;;5.63;2.40;;;;;;;22.98;67.15;100369.06;4975352;28;20043;-71
2022/06/07 08:29:29;;;;;;;3.65;2.40;;;;;;;23.03;66.98;100371.59;4979385;28;20026;-73
2022/06/07 08:31:55;;;;;;;3.88;2.50;;;;;;;23.13;68.37;100356.53;4975131;28;20033;-73
2022/06/07 08:39:50;;;;;;;8.20;2.33;;;;;;;23.31;67.90;100334.31;4973242;28;20038;-74
2022/06/07 08:42:48;;;;;;;4.70;2.10;;;;;;;23.54;64.95;100362.84;4988512;28;20026;-73
2022/06/07 08:45:22;;;;;;;3.15;2.40;;;;;;;23.45;65.53;100360.41;4932255;29;20047;-73
2022/06/07 08:47:56;;;;;;;4.00;2.10;;;;;;;23.10;64.19;100326.72;4921694;29;20114;-77
2022/06/07 08:50:26;;;;;;;2.97;2.10;;;;;;;23.61;66.32;100348.66;4930096;29;20438;-72
2022/06/07 08:52:59;;;;;;;2.72;2.13;;;;;;;23.65;67.53;100329.28;4919382;29;20035;-73
2022/06/07 08:55:32;;;;;;;3.25;2.08;;;;;;;23.85;68.15;100339.44;4912671;29;20506;-73
2022/06/07 08:58:15;;;;;;;4.18;2.28;;;;;;;23.57;65.30;100337.31;4912991;29;20046;-73
2022/06/07 09:00:44;;;;;;;4.05;2.10;;;;;;;23.52;63.98;100328.63;4913058;29;20131;-73
2022/06/07 09:03:28;;;;;;;;;;;;;;;23.61;64.47;100330.22;4913773;29;20076;-73
2022/06/07 09:05:56;;;;;;;4.95;2.10;;;;;;;23.84;67.79;100329.78;4932067;29;19918;-73
2022/06/07 09:08:23;;;;;;;5.50;2.17;;;;;;;23.90;64.50;100329.66;4931138;29;20039;-74
2022/06/07 09:13:35;;;;;;;4.45;2.65;;;;;;;23.79;65.65;100321.09;4913234;29;20087;-74
2022/06/07 09:16:03;;;;;;;2.83;2.10;;;;;;;23.44;63.47;100280.50;4931139;29;20051;-70
2022/06/07 09:18:31;;;;;;;4.40;2.10;;;;;;;23.66;61.29;100285.34;4922256;29;20035;-74
2022/06/07 09:21:08;;;;;;;6.07;2.38;;;;;;;23.94;62.55;100319.06;4945273;28;20472;-74
2022/06/07 09:23:43;;;;;;;4.55;2.03;;;;;;;23.92;62.75;100313.84;4991456;28;20405;-74
2022/06/07 09:26:36;;;;;;;4.78;2.17;;;;;;;24.17;62.92;100316.81;4972515;28;20054;-73
2022/06/07 09:29:15;;;;;;;2.65;1.70;;;;;;;24.33;61.48;100305.94;4972884;28;20053;-73
2022/06/07 09:31:42;;;;;;;2.65;1.65;;;;;;;24.28;60.12;100286.69;4972656;28;20027;-75
2022/06/07 09:34:15;;;;;;;2.88;1.98;;;;;;;24.48;60.62;100302.91;4975073;28;20039;-77
2022/06/07 09:36:46;;;;;;;5.80;2.10;;;;;;;24.65;60.29;100310.47;4971409;28;20061;-77
2022/06/07 09:39:25;;;;;;;4.80;2.17;;;;;;;25.00;58.19;100297.31;4983128;28;20062;-75
2022/06/07 09:42:00;;;;;;;4.22;1.88;;;;;;;25.06;59.65;100291.00;4992158;28;20076;-74
2022/06/07 09:44:54;;;;;;;5.00;1.95;;;;;;;25.07;57.13;100279.53;4992185;28;20041;-74
2022/06/07 09:47:25;;;;;;;3.50;1.83;;;;;;;25.08;57.05;100274.19;4992007;28;20049;-74
2022/06/07 09:49:57;;;;;;;4.93;1.80;;;;;;;25.24;55.30;100281.72;4991820;28;20493;-74
2022/06/07 09:52:24;;;;;;;8.80;2.05;;;;;;;25.26;54.45;100278.13;4991017;28;20085;-74
2022/06/07 09:54:55;;;;;;;6.82;2.13;;;;;;;25.08;54.32;100263.63;4992197;28;20042;-73
2022/06/07 09:57:27;;;;;;;3.58;1.90;;;;;;;24.76;54.39;100277.66;4991849;28;20018;-74
2022/06/07 10:00:20;;;;;;;2.97;1.98;;;;;;;24.69;53.21;100277.81;4980150;28;20118;-73
2022/06/07 10:03:04;;;;;;;12.68;3.80;;;;;;;24.64;54.47;100269.13;4971503;28;20178;-74
2022/06/07 10:06:05;;;;;;;4.43;2.10;;;;;;;24.67;58.63;100268.19;4986826;28;20041;-71
2022/06/07 10:08:36;;;;;;;13.75;3.10;;;;;;;24.66;55.58;100271.75;4956406;28;20070;-73
2022/06/07 10:11:01;;;;;;;4.50;1.98;;;;;;;24.80;55.81;100268.75;4962144;28;20047;-73
2022/06/07 10:13:29;;;;;;;3.85;2.03;;;;;;;24.96;55.74;100259.56;4968883;28;20039;-72
2022/06/07 10:16:32;;;;;;;3.78;1.90;;;;;;;25.22;52.78;100265.91;4970122;28;20114;-73
2022/06/07 10:19:24;;;;;;;2.58;1.92;;;;;;;25.31;55.88;100254.22;4970045;28;20039;-73
2022/06/07 10:22:15;;;;;;;2.65;2.10;;;;;;;25.35;53.26;100222.38;4968928;28;20493;-74
2022/06/07 10:24:51;;;;;;;5.35;2.00;;;;;;;25.60;54.01;100240.22;4969387;28;20038;-74
2022/06/07 10:27:34;;;;;;;6.47;1.90;;;;;;;25.42;53.41;100241.63;4969769;28;20030;-74
2022/06/07 10:30:47;;;;;;;1.67;1.58;;;;;;;25.55;54.59;100242.13;4950281;28;20098;-74
2022/06/07 10:33:29;;;;;;;9.00;2.25;;;;;;;25.48;52.18;100248.50;4950279;28;20051;-73
2022/06/07 10:36:09;;;;;;;8.30;2.20;;;;;;;25.37;51.35;100240.84;4950166;28;20594;-74
2022/06/07 10:38:58;;;;;;;4.97;2.00;;;;;;;25.34;50.26;100214.50;4950204;28;20522;-70
2022/06/07 10:41:27;;;;;;;5.30;1.80;;;;;;;25.81;53.36;100229.91;4950275;28;20027;-73
2022/06/07 10:44:21;;;;;;;4.40;2.15;;;;;;;25.73;52.87;100234.56;4916964;29;20042;-73
2022/06/07 10:46:48;;;;;;;3.63;2.05;;;;;;;25.80;52.98;100194.66;4936388;28;20398;-73
2022/06/07 10:49:30;;;;;;;3.20;1.77;;;;;;;26.11;50.08;100214.06;4969432;28;20161;-73
2022/06/07 10:52:43;;;;;;;3.10;1.70;;;;;;;25.92;48.65;100198.72;4969070;28;20070;-73
2022/06/07 10:55:09;;;;;;;3.70;1.75;;;;;;;26.42;47.91;100202.47;4930660;29;20431;-72
2022/06/07 10:57:53;;;;;;;5.32;1.80;;;;;;;26.58;49.47;100185.16;4930810;29;20023;-71
2022/06/07 11:00:33;;;;;;;2.72;1.80;;;;;;;26.89;47.58;100202.66;4933104;28;20040;-75
2022/06/07 11:03:00;;;;;;;3.17;1.85;;;;;;;26.75;49.94;100202.25;4969364;28;20038;-73
2022/06/07 11:11:22;;;;;;;5.00;1.75;;;;;;;26.41;50.18;100164.53;4969296;28;20025;-74
2022/06/07 11:14:00;;;;;;;3.42;1.90;;;;;;;26.52;50.81;100198.59;4969209;28;20046;-73
2022/06/07 11:16:40;;;;;;;5.60;1.77;;;;;;;26.55;48.80;100202.91;4969137;28;20027;-73
2022/06/07 11:19:05;;;;;;;2.70;2.00;;;;;;;26.56;48.82;100176.38;4968873;28;20523;-73
2022/06/07 11:21:37;;;;;;;4.35;1.80;;;;;;;26.66;47.89;100203.41;4969120;28;20034;-72
2022/06/07 11:24:02;;;;;;;2.83;1.85;;;;;;;26.70;48.94;100197.09;4969042;28;20049;-73
2022/06/07 11:26:59;;;;;;;3.55;1.90;;;;;;;26.47;46.82;100172.28;4968660;28;20501;-73
2022/06/07 11:29:31;;;;;;;3.28;1.70;;;;;;;26.50;48.05;100186.31;4911517;29;20119;-73
2022/06/07 11:31:59;;;;;;;1.95;1.40;;;;;;;26.43;47.92;100188.28;4934051;28;20190;-72
2022/06/07 11:34:37;;;;;;;2.00;1.40;;;;;;;26.35;45.79;100185.06;4953544;29;20039;-73
2022/06/07 11:37:08;;;;;;;2.42;1.63;;;;;;;26.47;47.23;100190.81;4952079;29;20152;-73
2022/06/07 11:39:39;;;;;;;3.50;1.80;;;;;;;26.51;46.64;100180.97;4950314;29;20083;-72
2022/06/07 11:42:11;;;;;;;4.85;1.70;;;;;;;26.55;45.94;100179.94;4948598;29;20041;-71
2022/06/07 11:45:03;;;;;;;2.53;1.80;;;;;;;26.53;46.82;100175.63;4952794;29;20448;-73
2022/06/07 11:47:43;;;;;;;2.38;1.50;;;;;;;26.61;49.00;100170.94;4951550;29;20525;-73
2022/06/07 11:50:27;;;;;;;2.75;1.90;;;;;;;26.55;48.66;100157.91;4949812;29;20040;-73
2022/06/07 11:53:13;;;;;;;2.33;1.70;;;;;;;26.54;48.24;100167.63;4949954;29;20048;-73
2022/06/07 11:55:41;;;;;;;5.20;1.83;;;;;;;26.43;50.08;100168.00;4941805;29;20095;-72
2022/06/07 11:58:07;;;;;;;4.53;1.65;;;;;;;26.16;49.00;100165.34;4950423;29;20405;-71
2022/06/07 12:00:38;;;;;;;3.35;1.65;;;;;;;25.96;49.44;100163.31;4952078;29;20045;-72
2022/06/07 12:03:08;;;;;;;2.50;1.73;;;;;;;25.76;51.84;100166.59;4947099;29;20537;-72